createdAt,value
2023-03-27T00:04:08.965Z,98633.03
2023-03-27T00:09:10.418Z,98637.13
2023-03-27T00:14:11.806Z,98644.81
2023-03-27T00:19:13.481Z,98637.69
2023-03-27T00:24:15.759Z,98632.22
2023-03-27T00:29:18.055Z,98645.34
2023-03-27T00:34:19.444Z,98638.81
2023-03-27T00:39:20.878Z,98638.81
2023-03-27T00:44:24.922Z,98645.09
2023-03-27T00:49:26.967Z,98642.59
2023-03-27T00:54:29.937Z,98654.34
2023-03-27T00:59:34.585Z,98683.38
2023-03-27T01:04:36.959Z,98700.56
2023-03-27T01:09:38.823Z,98705.50
2023-03-27T01:15:02.399Z,98743.78
2023-03-27T01:20:07.153Z,98745.16
2023-03-27T01:25:45.970Z,98754.72
2023-03-27T01:30:57.685Z,98783.97
2023-03-27T01:36:04.615Z,98803.09
2023-03-27T01:41:25.399Z,98819.50
2023-03-27T01:46:29.487Z,98836.47
2023-03-27T01:51:42.881Z,98844.94
2023-03-27T01:56:53.262Z,98860.81
2023-03-27T02:02:02.999Z,98861.06
2023-03-27T02:07:07.655Z,98881.84
2023-03-27T02:12:15.296Z,98888.94
2023-03-27T02:17:16.737Z,98902.34
2023-03-27T02:22:18.454Z,98899.88
2023-03-27T02:27:40.530Z,98909.72
2023-03-27T02:32:41.799Z,98928.03
2023-03-27T02:38:03.412Z,98952.09
2023-03-27T02:43:11.067Z,98958.09
2023-03-27T02:48:19.906Z,98963.56
2023-03-27T02:53:22.579Z,98980.25
2023-03-27T02:58:35.544Z,98986.00
2023-03-27T03:04:01.538Z,99002.13
2023-03-27T03:09:06.277Z,99010.31
2023-03-27T03:14:07.783Z,99025.91
2023-03-27T03:19:09.238Z,99035.19
2023-03-27T03:24:10.742Z,99049.13
2023-03-27T03:29:12.927Z,99051.88
2023-03-27T03:34:16.639Z,99066.63
2023-03-27T03:39:18.270Z,99083.03
2023-03-27T03:44:19.762Z,99089.59
2023-03-27T03:49:21.163Z,99095.59
2023-03-27T03:54:22.823Z,99107.38
2023-03-27T03:59:24.403Z,99115.88
2023-03-27T04:04:25.804Z,99128.69
2023-03-27T04:09:27.381Z,99142.91
2023-03-27T04:14:28.785Z,99160.13
2023-03-27T04:19:30.346Z,99170.25
2023-03-27T04:24:31.718Z,99171.31
2023-03-27T04:29:34.092Z,99167.22
2023-03-27T04:34:38.234Z,99181.72
2023-03-27T04:39:42.704Z,99192.13
2023-03-27T04:44:45.957Z,99199.78
2023-03-27T04:49:50.689Z,99215.91
2023-03-27T04:54:52.086Z,99225.22
2023-03-27T04:59:53.471Z,99229.88
2023-03-27T05:05:02.037Z,99254.72
2023-03-27T05:10:04.513Z,99261.00
2023-03-27T05:15:07.176Z,99266.19
2023-03-27T05:20:12.275Z,99273.59
2023-03-27T05:25:13.692Z,99286.44
2023-03-27T05:30:16.065Z,99299.56
2023-03-27T05:35:18.715Z,99304.47
2023-03-27T05:40:25.472Z,99306.13
2023-03-27T05:45:26.934Z,99314.88
2023-03-27T05:50:30.205Z,99320.63
2023-03-27T05:55:31.898Z,99322.78
2023-03-27T06:00:34.219Z,99331.78
2023-03-27T06:05:35.939Z,99341.94
2023-03-27T06:10:41.915Z,99355.84
2023-03-27T06:15:43.443Z,99370.06
2023-03-27T06:20:44.875Z,99385.09
2023-03-27T06:25:47.433Z,99390.88
2023-03-27T06:30:48.929Z,99401.25
2023-03-27T06:35:53.166Z,99411.09
2023-03-27T06:40:55.838Z,99420.69
2023-03-27T06:45:58.134Z,99416.81
2023-03-27T06:50:59.890Z,99443.88
2023-03-27T06:56:01.589Z,99449.34
2023-03-27T07:01:03.430Z,99450.97
2023-03-27T07:06:05.763Z,99467.88
2023-03-27T07:11:11.701Z,99459.19
2023-03-27T07:16:13.745Z,99482.38
2023-03-27T07:21:15.772Z,99492.19
2023-03-27T07:26:17.174Z,99506.97
2023-03-27T07:36:22.987Z,99520.88
2023-03-27T07:41:27.425Z,99517.06
2023-03-27T07:46:29.043Z,99545.84
2023-03-27T07:51:30.431Z,99529.66
2023-03-27T07:56:33.312Z,99527.72
2023-03-27T08:01:35.605Z,99542.59
2023-03-27T08:06:37.128Z,99551.78
2023-03-27T08:11:39.500Z,99550.72
2023-03-27T08:16:41.025Z,99557.81
2023-03-27T08:21:42.555Z,99563.53
2023-03-27T08:26:43.935Z,99569.25
2023-03-27T08:31:45.699Z,99573.41
2023-03-27T08:36:47.077Z,99574.47
2023-03-27T08:41:54.862Z,99579.38
2023-03-27T08:47:15.534Z,99588.66
2023-03-27T08:52:19.401Z,99606.72
2023-03-27T08:57:21.911Z,99611.09
2023-03-27T09:02:50.904Z,99589.81
2023-03-27T09:08:16.385Z,99599.09
2023-03-27T09:13:21.759Z,99598.53
2023-03-27T09:18:35.694Z,99592.31
2023-03-27T09:23:42.729Z,99606.22
2023-03-27T09:28:53.569Z,99625.59
2023-03-27T09:33:55.594Z,99621.78
2023-03-27T09:39:12.461Z,99618.78
2023-03-27T09:44:25.272Z,99647.47
2023-03-27T09:49:27.711Z,99649.63
2023-03-27T09:54:29.143Z,99653.50
2023-03-27T09:59:38.485Z,99639.81
2023-03-27T10:04:40.094Z,99645.91
2023-03-27T10:09:41.551Z,99649.72
2023-03-27T10:14:47.565Z,99647.56
2023-03-27T10:19:49.015Z,99667.78
2023-03-27T10:24:51.120Z,99645.41
2023-03-27T10:29:52.990Z,99660.72
2023-03-27T10:34:55.640Z,99651.13
2023-03-27T10:39:58.951Z,99666.38
2023-03-27T10:45:00.341Z,99678.72
2023-03-27T10:50:12.417Z,99691.28
2023-03-27T10:55:41.484Z,99689.41
2023-03-27T11:00:46.404Z,99702.81
2023-03-27T11:05:48.521Z,99706.38
2023-03-27T11:10:50.809Z,99704.41
2023-03-27T11:16:01.179Z,99719.75
2023-03-27T11:21:04.671Z,99720.53
2023-03-27T11:26:06.247Z,99704.88
2023-03-27T11:31:27.782Z,99714.00
2023-03-27T11:36:49.396Z,99714.84
2023-03-27T11:41:59.034Z,99728.50
2023-03-27T11:47:23.437Z,99736.72
2023-03-27T11:52:46.746Z,99731.97
2023-03-27T11:58:11.232Z,99755.47
2023-03-27T12:03:13.931Z,99751.34
2023-03-27T12:08:40.984Z,99762.28
2023-03-27T12:14:18.546Z,99765.03
2023-03-27T12:19:39.688Z,99732.22
2023-03-27T12:24:59.650Z,99747.53
2023-03-27T12:30:40.006Z,99746.94
2023-03-27T12:35:47.058Z,99740.97
2023-03-27T12:41:00.255Z,99765.59
2023-03-27T12:46:12.968Z,99740.19
2023-03-27T12:51:17.433Z,99743.97
2023-03-27T12:56:24.798Z,99756.59
2023-03-27T13:01:52.223Z,99759.09
2023-03-27T13:07:04.934Z,99749.19
2023-03-27T13:12:29.122Z,99761.56
2023-03-27T13:17:48.755Z,99768.59
2023-03-27T13:23:03.066Z,99808.28
2023-03-27T13:28:28.148Z,99794.34
2023-03-27T13:33:29.874Z,99789.38
2023-03-27T13:38:48.682Z,99791.88
2023-03-27T13:43:50.231Z,99788.09
2023-03-27T13:48:57.747Z,99778.56
2023-03-27T13:54:26.417Z,99792.72
2023-03-27T13:59:57.581Z,99835.38
2023-03-27T14:05:17.702Z,99820.91
2023-03-27T14:10:51.445Z,99831.19
2023-03-27T14:16:01.449Z,99858.34
2023-03-27T14:21:03.874Z,99818.63
2023-03-27T14:26:14.608Z,99816.22
2023-03-27T14:31:19.082Z,99854.66
2023-03-27T14:36:25.747Z,99867.84
2023-03-27T14:41:27.256Z,99847.41
2023-03-27T14:46:29.090Z,99877.22
2023-03-27T14:51:36.840Z,99880.78
2023-03-27T14:56:41.742Z,99870.91
2023-03-27T15:01:43.267Z,99893.88
2023-03-27T15:06:44.694Z,99909.47
2023-03-27T15:11:53.994Z,99887.59
2023-03-27T15:17:11.675Z,99904.56
2023-03-27T15:22:17.444Z,99917.41
2023-03-27T15:27:23.072Z,99917.06
2023-03-27T15:32:29.072Z,99893.53
2023-03-27T15:37:31.618Z,99898.84
2023-03-27T15:42:47.888Z,99894.91
2023-03-27T15:48:00.723Z,99908.59
2023-03-27T15:53:03.065Z,99899.34
2023-03-27T15:58:27.144Z,99903.13
2023-03-27T16:03:30.937Z,99913.59
2023-03-27T16:08:34.523Z,99946.41
2023-03-27T16:13:41.775Z,99930.84
2023-03-27T16:18:43.146Z,99936.81
2023-03-27T16:23:44.603Z,99930.47
2023-03-27T16:28:46.029Z,99929.06
2023-03-27T16:33:47.430Z,99931.78
2023-03-27T16:38:48.866Z,99938.94
2023-03-27T16:43:50.306Z,99944.13
2023-03-27T16:48:51.758Z,99947.38
2023-03-27T16:53:53.139Z,99964.03
2023-03-27T16:58:54.529Z,99960.81
2023-03-27T17:03:56.254Z,99979.09
2023-03-27T17:08:57.700Z,99976.03
2023-03-27T17:13:59.079Z,99998.81
2023-03-27T17:19:00.616Z,100009.41
2023-03-27T17:24:02.042Z,100070.66
2023-03-27T17:29:05.170Z,100051.25
2023-03-27T17:34:07.286Z,100061.34
2023-03-27T17:39:09.478Z,100060.56
2023-03-27T17:44:11.597Z,100065.41
2023-03-27T17:49:13.012Z,100092.53
2023-03-27T17:54:14.426Z,100109.78
2023-03-27T17:59:15.825Z,100123.66
2023-03-27T18:04:17.922Z,100117.63
2023-03-27T18:09:19.294Z,100108.69
2023-03-27T18:14:20.723Z,100125.34
2023-03-27T18:19:23.907Z,100114.06
2023-03-27T18:24:25.297Z,100121.41
2023-03-27T18:29:26.706Z,100130.81
2023-03-27T18:34:28.117Z,100130.81
2023-03-27T18:39:29.577Z,100125.56
2023-03-27T18:44:30.960Z,100125.81
2023-03-27T18:49:32.362Z,100117.97
2023-03-27T18:54:33.808Z,100121.50
2023-03-27T18:59:35.199Z,100118.94
2023-03-27T19:04:36.592Z,100109.66
2023-03-27T19:09:41.311Z,100108.94
2023-03-27T19:14:43.354Z,100116.31
2023-03-27T19:19:46.393Z,100114.41
2023-03-27T19:24:48.093Z,100114.88
2023-03-27T19:29:49.464Z,100103.94
2023-03-27T19:34:51.026Z,100110.84
2023-03-27T19:39:52.422Z,100116.03
2023-03-27T19:44:54.718Z,100118.19
2023-03-27T19:49:56.115Z,100114.41
2023-03-27T19:54:57.805Z,100123.66
2023-03-27T19:59:59.216Z,100120.34
2023-03-27T20:05:00.874Z,100133.19
2023-03-27T20:10:02.329Z,100122.84
2023-03-27T20:15:11.859Z,100126.06
2023-03-27T20:20:14.075Z,100120.84
2023-03-27T20:25:15.779Z,100118.94
2023-03-27T20:30:17.197Z,100128.47
2023-03-27T20:35:24.189Z,100129.63
2023-03-27T20:40:26.274Z,100141.97
2023-03-27T20:45:30.624Z,100126.06
2023-03-27T20:50:34.668Z,100124.63
2023-03-27T20:55:41.412Z,100137.59
2023-03-27T21:00:48.731Z,100130.94
2023-03-27T21:05:50.469Z,100121.91
2023-03-27T21:10:55.201Z,100123.56
2023-03-27T21:15:56.988Z,100115.38
2023-03-27T21:20:58.488Z,100109.06
2023-03-27T21:26:00.092Z,100107.16
2023-03-27T21:31:06.317Z,100117.28
2023-03-27T21:36:08.321Z,100111.31
2023-03-27T21:41:12.674Z,100111.31
2023-03-27T21:46:14.079Z,100108.31
2023-03-27T21:51:15.467Z,100112.72
2023-03-27T21:56:16.863Z,100112.38
2023-03-27T22:01:18.760Z,100113.22
2023-03-27T22:06:20.305Z,100113.47
2023-03-27T22:11:21.673Z,100105.75
2023-03-27T22:16:23.108Z,100101.13
2023-03-27T22:21:26.490Z,100098.97
2023-03-27T22:26:31.612Z,100105.50
2023-03-27T22:31:33.184Z,100105.75
2023-03-27T22:36:34.656Z,100105.28
2023-03-27T22:41:36.050Z,100114.53
2023-03-27T22:46:37.573Z,100110.13
2023-03-27T22:51:38.986Z,100114.53
2023-03-27T22:56:40.511Z,100107.88
2023-03-27T23:01:41.986Z,100123.22
2023-03-27T23:06:43.462Z,100124.63
2023-03-27T23:11:45.274Z,100126.22
2023-03-27T23:16:46.715Z,100133.66
2023-03-27T23:21:49.117Z,100128.78
2023-03-27T23:26:50.787Z,100144.03
2023-03-27T23:31:52.256Z,100138.31
2023-03-27T23:36:53.858Z,100139.50
2023-03-27T23:41:55.221Z,100136.66
2023-03-27T23:46:56.663Z,100138.31
2023-03-27T23:51:58.035Z,100121.69
2023-03-27T23:56:59.565Z,100125.47
